createdAt,value
2019-01-20T00:01:44.295Z,19.80
2019-01-20T00:06:47.915Z,18.87
2019-01-20T00:11:51.884Z,20.00
2019-01-20T00:16:55.498Z,19.13
2019-01-20T00:21:59.242Z,18.77
2019-01-20T00:27:02.968Z,21.17
2019-01-20T00:32:06.575Z,23.63
2019-01-20T00:37:10.447Z,24.60
2019-01-20T00:42:14.042Z,22.90
2019-01-20T00:47:18.061Z,21.13
2019-01-20T00:52:21.772Z,20.97
2019-01-20T00:57:25.374Z,19.93
2019-01-20T01:02:29.072Z,21.60
2019-01-20T01:07:32.678Z,19.77
2019-01-20T01:12:37.734Z,20.60
2019-01-20T01:17:41.411Z,18.77
2019-01-20T01:22:45.175Z,19.20
2019-01-20T01:27:48.875Z,20.07
2019-01-20T01:32:52.613Z,18.40
2019-01-20T01:37:56.162Z,18.27
2019-01-20T01:42:59.837Z,18.60
2019-01-20T01:48:03.785Z,20.00
2019-01-20T01:53:07.402Z,18.27
2019-01-20T01:58:11.015Z,17.77
2019-01-20T02:03:14.625Z,18.33
2019-01-20T02:08:18.296Z,18.20
2019-01-20T02:13:21.915Z,20.37
2019-01-20T02:18:25.521Z,19.70
2019-01-20T02:23:29.190Z,19.90
2019-01-20T02:28:33.094Z,21.00
2019-01-20T02:33:36.711Z,18.27
2019-01-20T02:38:40.294Z,19.87
2019-01-20T02:43:43.979Z,19.23
2019-01-20T02:48:47.595Z,19.03
2019-01-20T02:53:51.525Z,21.87
2019-01-20T02:58:55.120Z,20.00
2019-01-20T03:03:58.757Z,20.20
2019-01-20T03:09:04.099Z,20.07
2019-01-20T03:14:07.958Z,20.27
2019-01-20T03:19:11.647Z,20.73
2019-01-20T03:24:15.252Z,21.00
2019-01-20T03:29:19.130Z,22.97
2019-01-20T03:34:22.763Z,21.27
2019-01-20T03:39:26.329Z,21.77
2019-01-20T03:44:31.796Z,21.43
2019-01-20T03:49:35.384Z,20.30
2019-01-20T03:54:39.005Z,23.27
2019-01-20T03:59:42.698Z,23.10
2019-01-20T04:04:46.305Z,23.30
2019-01-20T04:09:49.924Z,23.47
2019-01-20T04:14:53.683Z,22.73
2019-01-20T04:19:57.292Z,22.30
2019-01-20T04:25:00.898Z,23.33
2019-01-20T04:30:06.954Z,23.43
2019-01-20T04:35:11.498Z,23.87
2019-01-20T04:40:18.605Z,26.30
2019-01-20T04:45:22.198Z,31.30
2019-01-20T04:50:26.118Z,29.93
2019-01-20T04:55:29.725Z,30.63
2019-01-20T05:00:33.411Z,28.93
2019-01-20T05:05:37.021Z,30.57
2019-01-20T05:10:40.636Z,28.63
2019-01-20T05:15:44.250Z,30.90
2019-01-20T05:20:47.873Z,32.40
2019-01-20T05:25:51.477Z,30.70
2019-01-20T05:30:55.118Z,31.13
2019-01-20T05:35:58.732Z,30.50
2019-01-20T05:41:02.341Z,30.00
2019-01-20T05:46:06.031Z,30.50
2019-01-20T05:51:09.733Z,32.27
2019-01-20T05:56:13.639Z,31.73
2019-01-20T06:01:17.268Z,31.40
2019-01-20T06:06:20.877Z,31.40
2019-01-20T06:11:24.487Z,28.93
2019-01-20T06:16:28.445Z,31.17
2019-01-20T06:21:32.058Z,33.20
2019-01-20T06:26:35.669Z,34.93
2019-01-20T06:31:39.283Z,32.50
2019-01-20T06:36:42.884Z,33.60
2019-01-20T06:41:46.501Z,30.00
2019-01-20T06:46:50.106Z,30.47
2019-01-20T06:51:53.717Z,31.57
2019-01-20T06:56:57.328Z,31.50
2019-01-20T07:02:00.943Z,30.50
2019-01-20T07:07:04.696Z,30.60
2019-01-20T07:12:08.294Z,31.67
2019-01-20T07:17:11.906Z,32.80
2019-01-20T07:22:22.950Z,30.97
2019-01-20T07:27:26.558Z,32.17
2019-01-20T07:32:30.171Z,32.17
2019-01-20T07:37:33.772Z,32.77
2019-01-20T07:42:37.641Z,31.07
2019-01-20T07:47:41.570Z,32.07
2019-01-20T07:52:45.155Z,30.80
2019-01-20T07:57:50.087Z,30.53
2019-01-20T08:02:53.986Z,31.17
2019-01-20T08:07:57.611Z,30.60
2019-01-20T08:13:01.213Z,32.03
2019-01-20T08:18:05.260Z,31.87
2019-01-20T08:23:08.875Z,30.50
2019-01-20T08:28:24.297Z,32.60
2019-01-20T08:33:27.901Z,30.40
2019-01-20T08:38:31.722Z,31.33
2019-01-20T08:43:35.460Z,31.30
2019-01-20T08:48:39.091Z,31.10
2019-01-20T08:53:42.710Z,32.07
2019-01-20T08:58:46.424Z,31.07
2019-01-20T09:03:50.050Z,31.20
2019-01-20T09:08:53.659Z,29.30
2019-01-20T09:13:57.286Z,30.23
2019-01-20T09:19:00.940Z,31.40
2019-01-20T09:24:04.811Z,31.43
2019-01-20T09:29:08.429Z,32.17
2019-01-20T09:34:12.050Z,29.73
2019-01-20T09:39:15.766Z,33.70
2019-01-20T09:44:19.613Z,31.90
2019-01-20T09:49:23.294Z,29.97
2019-01-20T09:54:26.936Z,30.30
2019-01-20T09:59:30.575Z,30.50
2019-01-20T10:04:34.188Z,29.47
2019-01-20T10:09:37.806Z,31.90
2019-01-20T10:14:41.424Z,32.10
2019-01-20T10:19:51.070Z,34.00
2019-01-20T10:24:54.690Z,30.83
2019-01-20T10:29:58.304Z,29.90
2019-01-20T10:35:02.394Z,28.73
2019-01-20T10:40:08.075Z,28.53
2019-01-20T10:45:12.242Z,28.67
2019-01-20T10:50:18.102Z,28.63
2019-01-20T10:55:21.781Z,28.10
2019-01-20T11:00:28.279Z,29.40
2019-01-20T11:05:32.823Z,29.43
2019-01-20T11:10:36.679Z,28.20
2019-01-20T11:15:40.394Z,28.53
2019-01-20T11:20:44.239Z,28.00
2019-01-20T11:25:47.843Z,27.93
2019-01-20T11:30:51.593Z,28.43
2019-01-20T11:35:55.191Z,27.00
2019-01-20T11:40:58.855Z,26.70
2019-01-20T11:46:02.539Z,26.97
2019-01-20T11:51:06.156Z,25.87
2019-01-20T11:56:09.814Z,25.70
2019-01-20T12:01:13.413Z,23.60
2019-01-20T12:06:17.038Z,24.30
2019-01-20T12:11:39.990Z,23.73
2019-01-20T12:16:46.030Z,23.87
2019-01-20T12:21:54.070Z,25.50
2019-01-20T12:27:03.382Z,27.10
2019-01-20T12:32:14.107Z,28.47
2019-01-20T12:37:20.668Z,25.73
2019-01-20T12:42:28.716Z,27.27
2019-01-20T12:47:37.041Z,26.33
2019-01-20T12:58:55.782Z,24.30
2019-01-20T13:03:59.535Z,26.33
2019-01-20T13:09:05.196Z,25.20
2019-01-20T13:14:08.992Z,27.10
2019-01-20T13:19:15.332Z,27.10
2019-01-20T13:24:23.390Z,25.73
2019-01-20T13:29:31.060Z,26.70
2019-01-20T13:34:38.985Z,25.90
2019-01-20T13:39:46.547Z,26.27
2019-01-20T13:44:56.124Z,24.90
2019-01-20T13:50:08.731Z,26.10
2019-01-20T13:55:14.331Z,26.23
2019-01-20T14:00:24.430Z,25.37
2019-01-20T14:05:30.709Z,26.07
2019-01-20T14:10:41.612Z,24.80
2019-01-20T14:15:49.786Z,25.70
2019-01-20T14:20:56.721Z,26.83
2019-01-20T14:26:05.062Z,25.83
2019-01-20T14:42:10.603Z,27.27
2019-01-20T14:47:33.542Z,27.40
2019-01-20T14:52:37.215Z,25.60
2019-01-20T14:57:40.865Z,26.57
2019-01-20T15:02:44.473Z,27.10
2019-01-20T15:07:51.315Z,26.87
2019-01-20T15:23:04.302Z,26.90
2019-01-20T15:33:17.722Z,27.13
2019-01-20T15:38:21.333Z,26.80
2019-01-20T15:43:24.926Z,27.63
2019-01-20T15:48:28.591Z,27.57
2019-01-20T15:53:32.261Z,26.53
2019-01-20T15:58:35.896Z,29.50
2019-01-20T16:03:39.474Z,28.30
2019-01-20T16:08:43.215Z,27.70
2019-01-20T16:13:46.901Z,28.73
2019-01-20T16:18:50.502Z,27.97
2019-01-20T16:23:54.122Z,29.10
2019-01-20T16:28:57.862Z,29.83
2019-01-20T16:34:01.455Z,29.30
2019-01-20T16:39:06.786Z,28.23
2019-01-20T16:44:10.432Z,28.27
2019-01-20T16:49:14.094Z,30.30
2019-01-20T16:54:17.706Z,30.57
2019-01-20T16:59:21.528Z,29.53
2019-01-20T17:04:25.629Z,30.93
2019-01-20T17:09:29.254Z,35.50
2019-01-20T17:14:32.899Z,40.73
2019-01-20T17:19:36.541Z,32.33
2019-01-20T17:24:40.280Z,36.00
2019-01-20T17:29:43.878Z,30.37
2019-01-20T17:34:47.479Z,30.90
2019-01-20T17:39:51.138Z,28.27
2019-01-20T17:44:55.153Z,28.43
2019-01-20T17:49:58.787Z,27.70
2019-01-20T17:55:02.433Z,28.70
2019-01-20T18:00:15.095Z,28.93
2019-01-20T18:05:21.814Z,26.80
2019-01-20T18:10:25.518Z,30.30
2019-01-20T18:15:29.194Z,28.00
2019-01-20T18:20:34.583Z,28.07
2019-01-20T18:25:38.276Z,30.90
2019-01-20T18:30:41.883Z,39.20
2019-01-20T18:35:45.617Z,28.03
2019-01-20T18:40:49.297Z,30.87
2019-01-20T18:45:52.955Z,29.17
2019-01-20T18:50:56.698Z,29.00
2019-01-20T18:56:00.527Z,28.47
2019-01-20T19:01:04.225Z,27.53
2019-01-20T19:06:07.917Z,29.40
2019-01-20T19:11:11.525Z,26.90
2019-01-20T19:16:15.249Z,27.67
2019-01-20T19:21:18.862Z,26.47
2019-01-20T19:26:22.485Z,28.17
2019-01-20T19:31:26.097Z,29.83
2019-01-20T19:36:29.839Z,29.60
2019-01-20T19:41:35.279Z,28.10
2019-01-20T19:46:38.807Z,28.03
2019-01-20T19:51:42.413Z,25.17
2019-01-20T19:56:46.065Z,26.23
2019-01-20T20:01:50.215Z,28.10
2019-01-20T20:06:53.873Z,27.67
2019-01-20T20:11:57.582Z,27.67
2019-01-20T20:17:01.232Z,28.10
2019-01-20T20:22:04.966Z,29.50
2019-01-20T20:27:11.840Z,34.90
2019-01-20T20:32:15.465Z,30.67
2019-01-20T20:37:19.122Z,27.97
2019-01-20T20:42:22.961Z,27.93
2019-01-20T20:47:26.578Z,31.23
2019-01-20T20:52:30.247Z,27.33
2019-01-20T20:57:34.133Z,33.83
2019-01-20T21:02:37.767Z,29.07
2019-01-20T21:07:41.450Z,28.50
2019-01-20T21:12:45.126Z,27.17
2019-01-20T21:17:48.778Z,24.83
2019-01-20T21:22:52.361Z,28.30
2019-01-20T21:27:55.971Z,27.40
2019-01-20T21:32:59.569Z,30.20
2019-01-20T21:38:07.005Z,28.50
2019-01-20T21:43:08.719Z,28.57
2019-01-20T21:48:12.345Z,28.10
2019-01-20T21:53:15.955Z,27.80
2019-01-20T21:58:19.674Z,26.23
2019-01-20T22:03:23.346Z,27.20
2019-01-20T22:08:26.946Z,25.93
2019-01-20T22:13:30.551Z,27.43
2019-01-20T22:18:34.157Z,36.97
2019-01-20T22:23:37.801Z,32.73
2019-01-20T22:28:41.434Z,29.37
2019-01-20T22:33:45.041Z,30.83
2019-01-20T22:38:48.737Z,28.83
2019-01-20T22:44:11.666Z,28.50
2019-01-20T22:49:15.270Z,28.60
2019-01-20T22:54:18.882Z,27.93
2019-01-20T22:59:22.519Z,26.00
2019-01-20T23:04:26.096Z,29.30
2019-01-20T23:09:29.713Z,31.07
2019-01-20T23:14:33.330Z,32.63
2019-01-20T23:19:36.949Z,26.30
2019-01-20T23:24:40.571Z,25.13
2019-01-20T23:29:44.183Z,25.77
2019-01-20T23:34:47.803Z,31.87
2019-01-20T23:39:51.414Z,27.97
2019-01-20T23:44:55.106Z,26.40
2019-01-20T23:49:58.732Z,30.70
2019-01-20T23:55:02.413Z,29.00
